createdAt,value
2019-04-20T00:00:51.529Z,52.49
2019-04-20T00:03:19.008Z,52.73
2019-04-20T00:05:50.904Z,52.60
2019-04-20T00:08:25.179Z,52.39
2019-04-20T00:11:01.769Z,52.40
2019-04-20T00:13:37.779Z,52.79
2019-04-20T00:15:55.832Z,53.37
2019-04-20T00:18:32.788Z,53.84
2019-04-20T00:21:03.940Z,54.20
2019-04-20T00:23:36.753Z,54.05
2019-04-20T00:26:27.321Z,54.46
2019-04-20T00:29:14.359Z,54.95
2019-04-20T00:31:35.324Z,54.90
2019-04-20T00:34:04.600Z,54.77
2019-04-20T00:36:27.148Z,54.83
2019-04-20T00:39:01.383Z,54.72
2019-04-20T00:41:35.160Z,54.86
2019-04-20T00:44:06.909Z,54.95
2019-04-20T00:46:46.924Z,54.85
2019-04-20T00:49:22.867Z,54.52
2019-04-20T00:51:52.540Z,54.60
2019-04-20T00:54:09.541Z,54.94
2019-04-20T00:56:40.983Z,54.99
2019-04-20T00:59:25.787Z,54.68
2019-04-20T01:02:04.003Z,54.36
2019-04-20T01:04:38.840Z,54.94
2019-04-20T01:07:01.143Z,55.73
2019-04-20T01:09:24.623Z,55.63
2019-04-20T01:11:56.618Z,55.43
2019-04-20T01:14:32.802Z,55.35
2019-04-20T01:17:07.131Z,55.06
2019-04-20T01:19:30.899Z,54.78
2019-04-20T01:22:07.143Z,54.60
2019-04-20T01:24:37.169Z,54.42
2019-04-20T01:27:06.945Z,54.32
2019-04-20T01:29:41.168Z,54.40
2019-04-20T01:32:20.979Z,54.41
2019-04-20T01:34:52.377Z,54.12
2019-04-20T01:37:27.437Z,54.20
2019-04-20T01:39:48.691Z,54.14
2019-04-20T01:42:15.096Z,54.02
2019-04-20T01:44:49.183Z,54.04
2019-04-20T01:47:17.081Z,54.25
2019-04-20T01:49:54.730Z,54.40
2019-04-20T01:52:27.107Z,54.79
2019-04-20T01:55:24.393Z,54.58
2019-04-20T01:58:00.436Z,54.58
2019-04-20T02:00:36.548Z,54.40
2019-04-20T02:03:22.859Z,54.38
2019-04-20T02:06:01.297Z,54.23
2019-04-20T02:08:27.373Z,54.25
2019-04-20T02:10:59.216Z,54.31
2019-04-20T02:13:36.156Z,54.43
2019-04-20T02:16:04.883Z,54.63
2019-04-20T02:18:40.055Z,55.11
2019-04-20T02:21:20.843Z,55.18
2019-04-20T02:23:40.888Z,55.09
2019-04-20T02:26:04.978Z,55.08
2019-04-20T02:29:00.849Z,55.08
2019-04-20T02:34:16.485Z,54.92
2019-04-20T02:36:58.962Z,54.75
2019-04-20T02:44:35.628Z,54.36
2019-04-20T02:47:07.891Z,54.24
2019-04-20T02:52:13.565Z,54.27
2019-04-20T02:54:56.455Z,54.26
2019-04-20T03:02:01.498Z,54.39
2019-04-20T03:04:25.816Z,54.36
2019-04-20T03:07:06.845Z,54.33
2019-04-20T03:09:40.236Z,54.47
2019-04-20T03:12:18.534Z,54.48
2019-04-20T03:14:35.259Z,54.41
2019-04-20T03:17:18.251Z,54.52
2019-04-20T03:19:41.291Z,54.47
2019-04-20T03:22:21.291Z,54.40
2019-04-20T03:24:49.582Z,54.33
2019-04-20T03:27:19.501Z,54.36
2019-04-20T03:29:54.981Z,54.51
2019-04-20T03:32:57.885Z,54.72
2019-04-20T03:35:10.184Z,54.80
2019-04-20T03:37:33.412Z,54.75
2019-04-20T03:39:59.242Z,54.86
2019-04-20T03:42:12.542Z,54.93
2019-04-20T03:44:51.196Z,55.06
2019-04-20T03:47:26.612Z,55.24
2019-04-20T03:50:07.838Z,55.38
2019-04-20T03:52:40.386Z,55.34
2019-04-20T03:55:16.216Z,55.60
2019-04-20T03:58:04.529Z,55.67
2019-04-20T04:00:45.821Z,55.88
2019-04-20T04:03:37.705Z,56.22
2019-04-20T04:05:57.391Z,56.30
2019-04-20T04:08:26.152Z,56.47
2019-04-20T04:11:09.721Z,56.77
2019-04-20T04:13:20.962Z,57.03
2019-04-20T04:15:59.330Z,57.84
2019-04-20T04:18:31.765Z,58.98
2019-04-20T04:21:02.889Z,59.85
2019-04-20T04:23:48.992Z,60.13
2019-04-20T04:26:17.559Z,60.81
2019-04-20T04:28:51.974Z,61.36
2019-04-20T04:31:28.157Z,61.48
2019-04-20T04:33:59.632Z,61.23
2019-04-20T04:36:21.823Z,60.77
2019-04-20T04:38:57.078Z,60.28
2019-04-20T04:41:26.601Z,59.81
2019-04-20T04:44:01.767Z,59.51
2019-04-20T04:46:14.482Z,59.23
2019-04-20T04:48:48.160Z,58.96
2019-04-20T04:51:22.981Z,58.87
2019-04-20T04:53:57.521Z,58.76
2019-04-20T04:56:23.111Z,58.80
2019-04-20T04:58:51.761Z,58.84
2019-04-20T05:01:26.043Z,58.73
2019-04-20T05:04:29.620Z,58.63
2019-04-20T05:06:37.759Z,58.55
2019-04-20T05:09:00.825Z,58.53
2019-04-20T05:11:29.993Z,58.59
2019-04-20T05:14:05.191Z,58.56
2019-04-20T05:16:54.887Z,58.46
2019-04-20T05:19:26.091Z,58.52
2019-04-20T05:21:58.739Z,58.52
2019-04-20T05:24:25.576Z,58.52
2019-04-20T05:27:19.074Z,58.64
2019-04-20T05:29:34.959Z,58.61
2019-04-20T05:32:10.669Z,58.54
2019-04-20T05:34:58.417Z,58.62
2019-04-20T05:37:33.069Z,58.75
2019-04-20T05:40:00.190Z,58.76
2019-04-20T05:42:30.228Z,58.75
2019-04-20T05:45:01.967Z,58.77
2019-04-20T05:47:33.179Z,58.73
2019-04-20T05:49:56.927Z,58.67
2019-04-20T05:52:56.423Z,58.60
2019-04-20T05:55:12.576Z,58.53
2019-04-20T05:57:42.268Z,58.39
2019-04-20T06:00:17.330Z,58.61
2019-04-20T06:02:44.101Z,58.67
2019-04-20T06:05:16.066Z,58.71
2019-04-20T06:07:49.127Z,58.73
2019-04-20T06:10:20.638Z,58.85
2019-04-20T06:12:46.701Z,59.12
2019-04-20T06:15:22.418Z,59.20
2019-04-20T06:18:02.481Z,59.24
2019-04-20T06:20:43.788Z,59.28
2019-04-20T06:23:41.432Z,59.18
2019-04-20T06:26:19.489Z,59.14
2019-04-20T06:28:37.727Z,59.29
2019-04-20T06:31:16.114Z,59.53
2019-04-20T06:36:53.435Z,59.17
2019-04-20T06:39:20.411Z,58.96
2019-04-20T06:44:30.625Z,58.27
2019-04-20T06:46:58.889Z,58.13
2019-04-20T06:51:58.693Z,57.17
2019-04-20T06:54:44.845Z,56.62
2019-04-20T06:57:19.642Z,56.37
2019-04-20T06:59:48.903Z,56.22
2019-04-20T07:02:24.596Z,56.05
2019-04-20T07:05:05.658Z,55.97
2019-04-20T07:07:26.618Z,55.66
2019-04-20T07:10:06.804Z,55.36
2019-04-20T07:12:24.077Z,54.92
2019-04-20T07:14:47.441Z,54.35
2019-04-20T07:17:39.181Z,54.15
2019-04-20T07:20:00.452Z,54.01
2019-04-20T07:22:39.403Z,53.94
2019-04-20T07:25:06.449Z,53.79
2019-04-20T07:27:45.125Z,53.69
2019-04-20T07:30:12.311Z,53.79
2019-04-20T07:32:52.171Z,53.64
2019-04-20T07:35:19.655Z,52.99
2019-04-20T07:40:21.240Z,52.75
2019-04-20T07:43:02.534Z,52.70
2019-04-20T07:48:06.196Z,52.38
2019-04-20T07:50:26.153Z,52.46
2019-04-20T07:52:51.201Z,52.04
2019-04-20T07:57:58.018Z,51.88
2019-04-20T08:00:48.225Z,51.38
2019-04-20T08:03:35.279Z,50.95
2019-04-20T08:05:56.231Z,50.39
2019-04-20T08:08:35.033Z,49.70
2019-04-20T08:11:10.346Z,50.02
2019-04-20T08:13:45.375Z,50.27
2019-04-20T08:16:06.918Z,49.68
2019-04-20T08:18:44.620Z,49.68
2019-04-20T08:21:16.724Z,49.53
2019-04-20T08:23:44.242Z,49.21
2019-04-20T08:26:13.415Z,49.14
2019-04-20T08:28:44.720Z,49.50
2019-04-20T08:31:38.378Z,49.75
2019-04-20T08:34:27.883Z,48.98
2019-04-20T08:36:56.620Z,48.38
2019-04-20T08:39:38.139Z,47.31
2019-04-20T08:42:00.517Z,46.81
2019-04-20T08:44:46.957Z,46.70
2019-04-20T08:47:15.898Z,46.94
2019-04-20T08:49:35.086Z,46.77
2019-04-20T08:52:22.974Z,45.81
2019-04-20T08:54:34.287Z,45.36
2019-04-20T08:56:53.631Z,44.32
2019-04-20T08:59:21.062Z,44.59
2019-04-20T09:01:51.130Z,44.62
2019-04-20T09:04:33.853Z,45.17
2019-04-20T09:07:04.044Z,45.57
2019-04-20T09:10:00.562Z,45.58
2019-04-20T09:12:14.460Z,45.32
2019-04-20T09:14:28.713Z,45.28
2019-04-20T09:17:05.882Z,45.01
2019-04-20T09:19:42.124Z,44.80
2019-04-20T09:22:34.156Z,44.33
2019-04-20T09:25:24.990Z,44.54
2019-04-20T09:27:35.064Z,44.63
2019-04-20T09:30:12.232Z,44.48
2019-04-20T09:32:43.992Z,44.17
2019-04-20T09:35:20.911Z,43.99
2019-04-20T09:37:57.184Z,43.75
2019-04-20T09:40:29.220Z,43.26
2019-04-20T09:42:41.465Z,44.05
2019-04-20T09:45:21.297Z,43.87
2019-04-20T09:47:48.227Z,43.39
2019-04-20T09:50:31.915Z,43.14
2019-04-20T09:53:02.392Z,43.11
2019-04-20T09:55:31.266Z,42.32
2019-04-20T09:58:06.282Z,42.21
2019-04-20T10:00:42.168Z,42.90
2019-04-20T10:02:58.317Z,42.93
2019-04-20T10:05:29.609Z,43.51
2019-04-20T10:08:03.338Z,43.44
2019-04-20T10:10:38.038Z,43.63
2019-04-20T10:13:02.592Z,43.50
2019-04-20T10:15:32.986Z,42.99
2019-04-20T10:18:03.713Z,42.75
2019-04-20T10:20:36.240Z,42.71
2019-04-20T10:23:04.917Z,43.31
2019-04-20T10:25:36.334Z,42.82
2019-04-20T10:28:07.539Z,42.97
2019-04-20T10:30:38.715Z,42.25
2019-04-20T10:33:09.779Z,42.32
2019-04-20T10:35:39.655Z,42.49
2019-04-20T10:38:13.833Z,42.39
2019-04-20T10:40:56.193Z,42.20
2019-04-20T10:43:16.469Z,42.31
2019-04-20T10:45:46.853Z,42.55
2019-04-20T10:48:17.340Z,42.06
2019-04-20T10:50:47.262Z,41.87
2019-04-20T10:53:17.585Z,42.05
2019-04-20T10:55:49.505Z,41.88
2019-04-20T10:58:19.739Z,41.85
2019-04-20T11:00:50.098Z,42.08
2019-04-20T11:03:20.820Z,41.72
2019-04-20T11:05:50.956Z,41.86
2019-04-20T11:08:20.702Z,42.32
2019-04-20T11:11:00.316Z,41.87
2019-04-20T11:13:21.790Z,42.14
2019-04-20T11:15:52.668Z,41.83
2019-04-20T11:18:22.372Z,41.41
2019-04-20T11:20:53.202Z,41.38
2019-04-20T11:23:24.439Z,41.19
2019-04-20T11:25:54.255Z,41.01
2019-04-20T11:28:25.960Z,40.63
2019-04-20T11:30:56.306Z,41.03
2019-04-20T11:33:26.089Z,40.56
2019-04-20T11:35:57.091Z,40.42
2019-04-20T11:38:28.092Z,40.01
2019-04-20T11:41:10.025Z,39.79
2019-04-20T11:43:29.373Z,39.22
2019-04-20T11:45:58.940Z,38.70
2019-04-20T11:48:29.624Z,38.51
2019-04-20T11:50:59.387Z,37.62
2019-04-20T11:53:30.417Z,38.38
2019-04-20T11:56:00.497Z,37.74
2019-04-20T11:58:30.444Z,37.54
2019-04-20T12:01:10.174Z,37.12
2019-04-20T12:03:48.615Z,36.69
2019-04-20T12:06:08.670Z,36.49
2019-04-20T12:08:40.253Z,36.10
2019-04-20T12:11:22.786Z,35.91
2019-04-20T12:13:42.639Z,35.90
2019-04-20T12:16:14.462Z,35.14
2019-04-20T12:18:44.401Z,34.54
2019-04-20T12:21:14.890Z,33.76
2019-04-20T12:23:44.642Z,32.62
2019-04-20T12:26:14.849Z,31.39
2019-04-20T12:28:45.657Z,30.07
2019-04-20T12:31:22.059Z,29.27
2019-04-20T12:33:48.432Z,28.36
2019-04-20T12:36:18.405Z,27.46
2019-04-20T12:38:48.704Z,26.76
2019-04-20T12:41:31.134Z,26.16
2019-04-20T12:43:50.342Z,25.72
2019-04-20T12:46:22.937Z,25.14
2019-04-20T12:48:51.577Z,24.65
2019-04-20T12:51:26.343Z,23.75
2019-04-20T12:53:52.921Z,23.58
2019-04-20T12:56:22.635Z,23.50
2019-04-20T12:58:53.535Z,23.50
2019-04-20T13:01:24.495Z,23.05
2019-04-20T13:03:55.293Z,23.24
2019-04-20T13:06:25.818Z,23.04
2019-04-20T13:08:58.891Z,22.06
2019-04-20T13:11:52.263Z,22.07
2019-04-20T13:14:34.743Z,22.65
2019-04-20T13:17:04.407Z,22.49
2019-04-20T13:19:35.320Z,21.75
2019-04-20T13:22:07.332Z,21.37
2019-04-20T13:24:37.151Z,21.01
2019-04-20T13:27:07.043Z,20.16
2019-04-20T13:29:38.148Z,19.48
2019-04-20T13:32:08.122Z,18.69
2019-04-20T13:34:38.175Z,18.08
2019-04-20T13:37:08.503Z,17.45
2019-04-20T13:39:38.679Z,16.19
2019-04-20T13:42:15.236Z,16.24
2019-04-20T13:44:41.090Z,16.46
2019-04-20T13:47:10.894Z,15.75
2019-04-20T13:49:40.949Z,14.95
2019-04-20T13:52:13.147Z,14.69
2019-04-20T13:54:44.097Z,13.86
2019-04-20T13:57:15.924Z,13.73
2019-04-20T13:59:50.291Z,13.76
2019-04-20T14:02:28.879Z,14.31
2019-04-20T14:05:00.632Z,15.82
2019-04-20T14:07:31.422Z,17.24
2019-04-20T14:10:01.754Z,18.26
2019-04-20T14:12:36.895Z,19.09
2019-04-20T14:15:03.330Z,20.14
2019-04-20T14:17:35.098Z,20.41
2019-04-20T14:20:11.430Z,21.00
2019-04-20T14:22:37.368Z,21.33
2019-04-20T14:25:07.330Z,21.78
2019-04-20T14:27:37.176Z,22.36
2019-04-20T14:30:07.639Z,22.28
2019-04-20T14:32:38.911Z,22.77
2019-04-20T14:35:11.335Z,22.82
2019-04-20T14:37:41.673Z,23.22
2019-04-20T14:40:12.736Z,23.36
2019-04-20T14:42:49.794Z,23.74
2019-04-20T14:45:18.583Z,23.65
2019-04-20T14:47:49.853Z,23.09
2019-04-20T14:50:20.139Z,23.09
2019-04-20T14:52:49.791Z,23.63
2019-04-20T14:55:20.763Z,23.89
2019-04-20T14:57:50.869Z,23.95
2019-04-20T15:01:04.834Z,23.85
2019-04-20T15:03:38.358Z,24.10
2019-04-20T15:06:07.831Z,24.18
2019-04-20T15:08:38.658Z,24.18
2019-04-20T15:11:09.255Z,24.66
2019-04-20T15:13:40.509Z,24.47
2019-04-20T15:16:10.880Z,24.88
2019-04-20T15:18:45.558Z,24.90
2019-04-20T15:21:17.984Z,24.50
2019-04-20T15:23:47.994Z,24.50
2019-04-20T15:26:18.389Z,25.22
2019-04-20T15:28:48.371Z,25.22
2019-04-20T15:31:18.474Z,24.92
2019-04-20T15:33:48.848Z,24.70
2019-04-20T15:36:18.552Z,24.65
2019-04-20T15:38:51.423Z,24.67
2019-04-20T15:41:21.197Z,24.80
2019-04-20T15:43:51.202Z,25.04
2019-04-20T15:46:21.426Z,25.11
2019-04-20T15:48:52.359Z,25.06
2019-04-20T15:56:22.450Z,25.12
2019-04-20T15:58:52.566Z,25.12
2019-04-20T16:01:23.884Z,24.99
2019-04-20T16:03:59.278Z,24.92
2019-04-20T16:06:29.574Z,25.15
2019-04-20T16:09:00.328Z,25.19
2019-04-20T16:11:30.913Z,25.64
2019-04-20T16:14:01.984Z,25.30
2019-04-20T16:16:32.076Z,25.72
2019-04-20T16:19:06.176Z,25.95
2019-04-20T16:21:35.739Z,26.71
2019-04-20T16:24:06.815Z,27.05
2019-04-20T16:26:39.796Z,27.51
2019-04-20T16:29:09.606Z,27.88
2019-04-20T16:31:40.557Z,28.16
2019-04-20T16:34:12.132Z,28.32
2019-04-20T16:36:41.869Z,28.61
2019-04-20T16:39:12.639Z,28.42
2019-04-20T16:41:42.530Z,28.71
2019-04-20T16:44:13.432Z,28.73
2019-04-20T16:46:43.821Z,28.61
2019-04-20T16:49:14.770Z,28.85
2019-04-20T16:51:45.114Z,28.80
2019-04-20T16:54:15.556Z,28.76
2019-04-20T16:56:46.567Z,28.93
2019-04-20T16:59:17.862Z,28.98
2019-04-20T17:01:48.499Z,29.47
2019-04-20T17:04:22.523Z,29.57
2019-04-20T17:06:54.032Z,29.92
2019-04-20T17:09:24.131Z,30.04
2019-04-20T17:11:54.029Z,30.53
2019-04-20T17:14:23.982Z,30.94
2019-04-20T17:16:55.659Z,31.11
2019-04-20T17:19:25.922Z,31.23
2019-04-20T17:24:47.606Z,31.60
2019-04-20T17:27:23.557Z,31.70
2019-04-20T17:29:59.006Z,31.97
2019-04-20T17:32:31.715Z,32.06
2019-04-20T17:35:15.799Z,32.50
2019-04-20T17:37:39.367Z,32.64
2019-04-20T17:40:27.037Z,32.37
2019-04-20T17:42:50.752Z,32.65
2019-04-20T17:45:19.395Z,32.67
2019-04-20T17:47:57.950Z,32.88
2019-04-20T17:50:38.504Z,33.33
2019-04-20T17:53:05.140Z,33.29
2019-04-20T17:55:32.253Z,33.35
2019-04-20T17:57:55.593Z,33.30
2019-04-20T18:00:29.051Z,33.02
2019-04-20T18:03:14.627Z,32.66
2019-04-20T18:05:55.897Z,32.62
2019-04-20T18:08:26.335Z,32.07
2019-04-20T18:10:51.738Z,32.08
2019-04-20T18:13:16.592Z,32.16
2019-04-20T18:15:58.892Z,31.90
2019-04-20T18:18:35.409Z,32.01
2019-04-20T18:20:56.888Z,31.77
2019-04-20T18:23:34.416Z,31.66
2019-04-20T18:26:25.959Z,31.33
2019-04-20T18:28:54.424Z,31.23
2019-04-20T18:31:08.899Z,31.20
2019-04-20T18:33:40.397Z,31.35
2019-04-20T18:36:13.313Z,31.51
2019-04-20T18:38:50.085Z,31.78
2019-04-20T18:41:25.698Z,32.01
2019-04-20T18:43:50.244Z,32.05
2019-04-20T18:46:31.829Z,32.20
2019-04-20T18:49:08.548Z,32.17
2019-04-20T18:51:19.668Z,32.16
2019-04-20T18:53:50.493Z,32.11
2019-04-20T18:56:25.569Z,32.09
2019-04-20T18:58:53.321Z,32.54
2019-04-20T19:01:30.144Z,32.50
2019-04-20T19:03:57.089Z,32.59
2019-04-20T19:06:25.999Z,32.64
2019-04-20T19:08:57.198Z,32.82
2019-04-20T19:11:27.596Z,32.79
2019-04-20T19:14:16.160Z,32.90
2019-04-20T19:16:52.840Z,33.12
2019-04-20T19:19:21.779Z,33.31
2019-04-20T19:21:43.823Z,33.29
2019-04-20T19:24:16.897Z,33.49
2019-04-20T19:26:50.797Z,33.43
2019-04-20T19:29:27.904Z,33.61
2019-04-20T19:32:07.603Z,33.68
2019-04-20T19:34:36.534Z,33.61
2019-04-20T19:37:05.038Z,33.65
2019-04-20T19:39:39.790Z,33.84
2019-04-20T19:42:08.616Z,34.26
2019-04-20T19:44:41.910Z,34.57
2019-04-20T19:47:15.667Z,34.74
2019-04-20T19:49:42.150Z,35.03
2019-04-20T19:52:30.961Z,35.18
2019-04-20T19:54:50.425Z,35.27
2019-04-20T19:57:22.098Z,35.51
2019-04-20T19:59:41.187Z,35.59
2019-04-20T20:02:07.779Z,36.03
2019-04-20T20:04:42.593Z,36.26
2019-04-20T20:07:19.326Z,36.62
2019-04-20T20:09:52.498Z,36.79
2019-04-20T20:12:15.677Z,36.92
2019-04-20T20:14:47.508Z,37.02
2019-04-20T20:17:39.951Z,37.23
2019-04-20T20:20:14.715Z,37.54
2019-04-20T20:22:31.527Z,37.51
2019-04-20T20:24:51.232Z,37.40
2019-04-20T20:27:31.368Z,37.61
2019-04-20T20:30:04.158Z,37.58
2019-04-20T20:32:41.859Z,37.56
2019-04-20T20:35:05.622Z,37.68
2019-04-20T20:37:34.684Z,37.85
2019-04-20T20:40:13.281Z,38.26
2019-04-20T20:42:47.282Z,38.27
2019-04-20T20:45:12.927Z,38.27
2019-04-20T20:47:55.034Z,38.24
2019-04-20T20:50:25.648Z,38.17
2019-04-20T20:52:55.952Z,38.39
2019-04-20T20:55:24.573Z,38.60
2019-04-20T20:57:52.049Z,38.74
2019-04-20T21:00:24.003Z,38.90
2019-04-20T21:02:53.105Z,39.06
2019-04-20T21:05:17.684Z,39.35
2019-04-20T21:07:49.766Z,39.57
2019-04-20T21:10:25.687Z,39.73
2019-04-20T21:12:55.382Z,39.77
2019-04-20T21:15:24.141Z,39.72
2019-04-20T21:18:16.260Z,40.13
2019-04-20T21:20:46.485Z,40.17
2019-04-20T21:23:11.542Z,40.31
2019-04-20T21:25:47.614Z,40.51
2019-04-20T21:28:15.092Z,40.70
2019-04-20T21:30:48.362Z,40.66
2019-04-20T21:33:20.779Z,40.68
2019-04-20T21:35:51.737Z,40.73
2019-04-20T21:38:21.797Z,41.02
2019-04-20T21:40:59.689Z,41.20
2019-04-20T21:43:29.479Z,41.58
2019-04-20T21:45:59.417Z,41.63
2019-04-20T21:48:48.922Z,41.61
2019-04-20T21:51:13.406Z,41.72
2019-04-20T21:53:33.054Z,41.87
2019-04-20T21:56:00.146Z,42.01
2019-04-20T21:58:35.281Z,41.85
2019-04-20T22:01:14.988Z,41.92
2019-04-20T22:03:34.322Z,42.02
2019-04-20T22:06:06.778Z,42.09
2019-04-20T22:08:39.495Z,42.14
2019-04-20T22:11:08.727Z,42.19
2019-04-20T22:13:41.993Z,42.22
2019-04-20T22:16:12.216Z,42.24
2019-04-20T22:18:59.319Z,42.21
2019-04-20T22:21:21.265Z,42.34
2019-04-20T22:24:00.208Z,42.42
2019-04-20T22:26:25.280Z,42.67
2019-04-20T22:28:47.939Z,42.62
2019-04-20T22:31:18.350Z,42.70
2019-04-20T22:33:48.931Z,42.71
2019-04-20T22:36:20.229Z,42.87
2019-04-20T22:38:58.329Z,43.00
2019-04-20T22:41:27.692Z,42.98
2019-04-20T22:43:57.077Z,43.17
2019-04-20T22:46:31.848Z,42.97
2019-04-20T22:49:17.165Z,43.07
2019-04-20T22:51:43.534Z,43.02
2019-04-20T22:54:18.814Z,43.05
2019-04-20T22:56:47.264Z,43.22
2019-04-20T22:59:13.156Z,43.23
2019-04-20T23:01:45.787Z,43.31
2019-04-20T23:04:08.851Z,43.41
2019-04-20T23:06:43.866Z,43.61
2019-04-20T23:09:14.332Z,43.86
2019-04-20T23:11:42.434Z,43.95
2019-04-20T23:14:12.476Z,43.98
2019-04-20T23:16:48.652Z,44.08
2019-04-20T23:19:14.361Z,44.25
2019-04-20T23:21:48.711Z,44.23
2019-04-20T23:24:18.453Z,44.31
2019-04-20T23:26:49.399Z,44.48
2019-04-20T23:29:22.633Z,44.56
2019-04-20T23:31:57.468Z,44.73
2019-04-20T23:34:27.294Z,44.73
2019-04-20T23:36:54.875Z,44.84
2019-04-20T23:39:34.255Z,44.79
2019-04-20T23:42:00.353Z,44.83
2019-04-20T23:44:48.257Z,44.89
2019-04-20T23:47:21.969Z,44.92
2019-04-20T23:50:12.303Z,45.02
2019-04-20T23:52:49.018Z,45.12
2019-04-20T23:55:02.825Z,45.34
2019-04-20T23:57:27.524Z,45.58
2019-04-20T23:59:58.202Z,45.57
